sensor_id;sensor_type;location;lat;lon;timestamp;P1;durP1;ratioP1;P2;durP2;ratioP2
287;SDS011;128;48.770;9.198;2023-08-06T00:00:19;9.57;;;5.33;;
287;SDS011;128;48.770;9.198;2023-08-06T00:02:46;7.83;;;4.77;;
287;SDS011;128;48.770;9.198;2023-08-06T00:05:11;10.40;;;4.30;;
287;SDS011;128;48.770;9.198;2023-08-06T00:07:37;6.60;;;3.73;;
287;SDS011;128;48.770;9.198;2023-08-06T00:10:04;7.27;;;3.63;;
287;SDS011;128;48.770;9.198;2023-08-06T00:12:30;5.63;;;4.03;;
287;SDS011;128;48.770;9.198;2023-08-06T00:14:56;13.13;;;4.20;;
287;SDS011;128;48.770;9.198;2023-08-06T00:17:21;5.23;;;3.30;;
287;SDS011;128;48.770;9.198;2023-08-06T00:19:47;6.53;;;3.60;;
287;SDS011;128;48.770;9.198;2023-08-06T00:22:13;6.67;;;3.70;;
287;SDS011;128;48.770;9.198;2023-08-06T00:24:39;6.70;;;3.57;;
287;SDS011;128;48.770;9.198;2023-08-06T00:27:05;8.00;;;4.37;;
287;SDS011;128;48.770;9.198;2023-08-06T00:29:31;5.97;;;4.23;;
287;SDS011;128;48.770;9.198;2023-08-06T00:31:57;11.50;;;3.87;;
287;SDS011;128;48.770;9.198;2023-08-06T00:34:23;6.77;;;3.80;;
287;SDS011;128;48.770;9.198;2023-08-06T00:36:49;6.23;;;3.93;;
287;SDS011;128;48.770;9.198;2023-08-06T00:39:15;5.53;;;3.83;;
287;SDS011;128;48.770;9.198;2023-08-06T00:41:41;7.33;;;3.67;;
287;SDS011;128;48.770;9.198;2023-08-06T00:44:07;5.60;;;4.00;;
287;SDS011;128;48.770;9.198;2023-08-06T00:46:32;11.00;;;3.83;;
287;SDS011;128;48.770;9.198;2023-08-06T00:48:59;4.90;;;3.10;;
287;SDS011;128;48.770;9.198;2023-08-06T00:51:25;8.37;;;4.03;;
287;SDS011;128;48.770;9.198;2023-08-06T00:53:52;9.10;;;3.80;;
287;SDS011;128;48.770;9.198;2023-08-06T00:56:18;5.13;;;3.27;;
287;SDS011;128;48.770;9.198;2023-08-06T00:58:44;8.73;;;4.47;;
287;SDS011;128;48.770;9.198;2023-08-06T01:01:11;6.90;;;4.40;;
287;SDS011;128;48.770;9.198;2023-08-06T01:03:37;4.83;;;2.97;;
287;SDS011;128;48.770;9.198;2023-08-06T01:06:03;4.97;;;3.37;;
287;SDS011;128;48.770;9.198;2023-08-06T01:08:42;6.60;;;3.67;;
287;SDS011;128;48.770;9.198;2023-08-06T01:11:17;5.57;;;3.20;;
287;SDS011;128;48.770;9.198;2023-08-06T01:13:47;7.67;;;3.17;;
287;SDS011;128;48.770;9.198;2023-08-06T01:16:15;9.93;;;4.10;;
287;SDS011;128;48.770;9.198;2023-08-06T01:18:41;7.27;;;2.70;;
287;SDS011;128;48.770;9.198;2023-08-06T01:21:11;4.63;;;3.07;;
287;SDS011;128;48.770;9.198;2023-08-06T01:23:37;4.90;;;3.13;;
287;SDS011;128;48.770;9.198;2023-08-06T01:28:48;6.70;;;2.90;;
287;SDS011;128;48.770;9.198;2023-08-06T01:31:18;10.63;;;3.13;;
287;SDS011;128;48.770;9.198;2023-08-06T01:33:44;3.87;;;2.30;;
287;SDS011;128;48.770;9.198;2023-08-06T01:36:12;4.40;;;2.77;;
287;SDS011;128;48.770;9.198;2023-08-06T01:38:38;6.43;;;2.23;;
287;SDS011;128;48.770;9.198;2023-08-06T01:41:04;4.30;;;3.07;;
287;SDS011;128;48.770;9.198;2023-08-06T01:43:30;4.43;;;3.37;;
287;SDS011;128;48.770;9.198;2023-08-06T01:45:56;7.10;;;2.90;;
287;SDS011;128;48.770;9.198;2023-08-06T01:48:22;6.10;;;3.00;;
287;SDS011;128;48.770;9.198;2023-08-06T01:50:48;5.20;;;2.97;;
287;SDS011;128;48.770;9.198;2023-08-06T01:53:14;4.80;;;2.50;;
287;SDS011;128;48.770;9.198;2023-08-06T01:55:39;3.60;;;2.70;;
287;SDS011;128;48.770;9.198;2023-08-06T01:58:05;19.63;;;3.70;;
287;SDS011;128;48.770;9.198;2023-08-06T02:00:31;5.23;;;3.00;;
287;SDS011;128;48.770;9.198;2023-08-06T02:02:57;6.60;;;3.53;;
287;SDS011;128;48.770;9.198;2023-08-06T02:05:23;5.07;;;3.10;;
287;SDS011;128;48.770;9.198;2023-08-06T02:07:49;11.37;;;3.10;;
287;SDS011;128;48.770;9.198;2023-08-06T02:10:15;7.57;;;3.40;;
287;SDS011;128;48.770;9.198;2023-08-06T02:12:41;3.77;;;2.80;;
287;SDS011;128;48.770;9.198;2023-08-06T02:15:07;4.07;;;3.07;;
287;SDS011;128;48.770;9.198;2023-08-06T02:17:33;6.43;;;3.63;;
287;SDS011;128;48.770;9.198;2023-08-06T02:19:59;4.83;;;3.47;;
287;SDS011;128;48.770;9.198;2023-08-06T02:22:26;8.97;;;3.47;;
287;SDS011;128;48.770;9.198;2023-08-06T02:24:51;7.90;;;3.03;;
287;SDS011;128;48.770;9.198;2023-08-06T02:27:17;5.43;;;3.30;;
287;SDS011;128;48.770;9.198;2023-08-06T02:29:43;4.77;;;3.00;;
287;SDS011;128;48.770;9.198;2023-08-06T02:32:09;4.63;;;3.30;;
287;SDS011;128;48.770;9.198;2023-08-06T02:34:35;4.10;;;3.00;;
287;SDS011;128;48.770;9.198;2023-08-06T02:37:01;8.83;;;3.07;;
287;SDS011;128;48.770;9.198;2023-08-06T02:39:27;5.30;;;3.73;;
287;SDS011;128;48.770;9.198;2023-08-06T02:41:53;5.87;;;2.87;;
287;SDS011;128;48.770;9.198;2023-08-06T02:44:19;5.07;;;3.40;;
287;SDS011;128;48.770;9.198;2023-08-06T02:46:45;7.47;;;3.10;;
287;SDS011;128;48.770;9.198;2023-08-06T02:49:11;4.33;;;2.93;;
287;SDS011;128;48.770;9.198;2023-08-06T02:51:37;7.03;;;3.73;;
287;SDS011;128;48.770;9.198;2023-08-06T02:54:03;5.80;;;2.83;;
287;SDS011;128;48.770;9.198;2023-08-06T02:56:29;5.40;;;3.03;;
287;SDS011;128;48.770;9.198;2023-08-06T02:58:55;6.03;;;2.90;;
287;SDS011;128;48.770;9.198;2023-08-06T03:01:21;6.17;;;3.17;;
287;SDS011;128;48.770;9.198;2023-08-06T03:03:48;4.33;;;2.60;;
287;SDS011;128;48.770;9.198;2023-08-06T03:06:14;5.33;;;2.80;;
287;SDS011;128;48.770;9.198;2023-08-06T03:08:40;4.33;;;2.70;;
287;SDS011;128;48.770;9.198;2023-08-06T03:11:06;5.53;;;2.97;;
287;SDS011;128;48.770;9.198;2023-08-06T03:13:32;4.17;;;2.90;;
287;SDS011;128;48.770;9.198;2023-08-06T03:15:58;4.10;;;2.97;;
287;SDS011;128;48.770;9.198;2023-08-06T03:18:24;4.53;;;2.70;;
287;SDS011;128;48.770;9.198;2023-08-06T03:20:54;4.03;;;2.30;;
287;SDS011;128;48.770;9.198;2023-08-06T03:23:20;6.30;;;2.60;;
287;SDS011;128;48.770;9.198;2023-08-06T03:25:46;6.60;;;2.93;;
287;SDS011;128;48.770;9.198;2023-08-06T03:28:12;6.10;;;2.20;;
287;SDS011;128;48.770;9.198;2023-08-06T03:30:38;10.30;;;2.37;;
287;SDS011;128;48.770;9.198;2023-08-06T03:33:04;4.97;;;2.73;;
287;SDS011;128;48.770;9.198;2023-08-06T03:35:30;5.07;;;2.53;;
287;SDS011;128;48.770;9.198;2023-08-06T03:37:56;5.10;;;1.90;;
287;SDS011;128;48.770;9.198;2023-08-06T03:40:22;3.83;;;2.60;;
287;SDS011;128;48.770;9.198;2023-08-06T03:42:48;14.43;;;2.87;;
287;SDS011;128;48.770;9.198;2023-08-06T03:45:13;4.80;;;2.00;;
287;SDS011;128;48.770;9.198;2023-08-06T03:47:39;4.10;;;2.57;;
287;SDS011;128;48.770;9.198;2023-08-06T03:50:05;9.40;;;3.10;;
287;SDS011;128;48.770;9.198;2023-08-06T03:52:31;4.63;;;2.50;;
287;SDS011;128;48.770;9.198;2023-08-06T03:54:57;4.10;;;2.30;;
287;SDS011;128;48.770;9.198;2023-08-06T03:57:23;3.27;;;2.13;;
287;SDS011;128;48.770;9.198;2023-08-06T03:59:49;8.20;;;3.20;;
287;SDS011;128;48.770;9.198;2023-08-06T04:02:15;10.27;;;3.47;;
287;SDS011;128;48.770;9.198;2023-08-06T04:04:41;6.00;;;2.40;;
287;SDS011;128;48.770;9.198;2023-08-06T04:07:07;4.10;;;2.57;;
287;SDS011;128;48.770;9.198;2023-08-06T04:09:33;2.90;;;2.30;;
287;SDS011;128;48.770;9.198;2023-08-06T04:11:59;6.10;;;2.53;;
287;SDS011;128;48.770;9.198;2023-08-06T04:14:26;6.73;;;2.50;;
287;SDS011;128;48.770;9.198;2023-08-06T04:16:52;6.43;;;2.63;;
287;SDS011;128;48.770;9.198;2023-08-06T04:19:18;8.90;;;3.03;;
287;SDS011;128;48.770;9.198;2023-08-06T04:21:44;3.93;;;2.33;;
287;SDS011;128;48.770;9.198;2023-08-06T04:24:10;5.33;;;2.13;;
287;SDS011;128;48.770;9.198;2023-08-06T04:26:36;4.77;;;2.50;;
287;SDS011;128;48.770;9.198;2023-08-06T04:29:02;8.40;;;2.27;;
287;SDS011;128;48.770;9.198;2023-08-06T04:31:28;5.67;;;2.97;;
287;SDS011;128;48.770;9.198;2023-08-06T04:33:54;4.60;;;2.60;;
287;SDS011;128;48.770;9.198;2023-08-06T04:36:20;3.27;;;2.40;;
287;SDS011;128;48.770;9.198;2023-08-06T04:38:46;5.50;;;2.40;;
287;SDS011;128;48.770;9.198;2023-08-06T04:41:12;16.07;;;2.47;;
287;SDS011;128;48.770;9.198;2023-08-06T04:43:38;5.93;;;2.30;;
287;SDS011;128;48.770;9.198;2023-08-06T04:46:05;6.47;;;2.67;;
287;SDS011;128;48.770;9.198;2023-08-06T04:48:31;4.40;;;2.40;;
287;SDS011;128;48.770;9.198;2023-08-06T04:50:57;6.47;;;2.93;;
287;SDS011;128;48.770;9.198;2023-08-06T04:53:23;4.47;;;2.20;;
287;SDS011;128;48.770;9.198;2023-08-06T04:55:49;4.53;;;2.40;;
287;SDS011;128;48.770;9.198;2023-08-06T04:58:15;3.37;;;2.13;;
287;SDS011;128;48.770;9.198;2023-08-06T05:00:41;7.13;;;1.90;;
287;SDS011;128;48.770;9.198;2023-08-06T05:03:06;3.97;;;2.03;;
287;SDS011;128;48.770;9.198;2023-08-06T05:05:32;4.87;;;2.40;;
287;SDS011;128;48.770;9.198;2023-08-06T05:07:58;9.53;;;2.30;;
287;SDS011;128;48.770;9.198;2023-08-06T05:10:25;5.13;;;1.83;;
287;SDS011;128;48.770;9.198;2023-08-06T05:12:51;6.40;;;2.20;;
287;SDS011;128;48.770;9.198;2023-08-06T05:15:17;3.23;;;2.10;;
287;SDS011;128;48.770;9.198;2023-08-06T05:17:43;6.30;;;1.70;;
287;SDS011;128;48.770;9.198;2023-08-06T05:20:09;5.13;;;1.60;;
287;SDS011;128;48.770;9.198;2023-08-06T05:22:35;2.40;;;1.50;;
287;SDS011;128;48.770;9.198;2023-08-06T05:25:01;6.50;;;2.33;;
287;SDS011;128;48.770;9.198;2023-08-06T05:27:27;5.63;;;1.73;;
287;SDS011;128;48.770;9.198;2023-08-06T05:29:54;3.90;;;1.40;;
287;SDS011;128;48.770;9.198;2023-08-06T05:32:24;5.50;;;1.90;;
287;SDS011;128;48.770;9.198;2023-08-06T05:34:50;3.60;;;1.30;;
287;SDS011;128;48.770;9.198;2023-08-06T05:37:15;7.73;;;2.10;;
287;SDS011;128;48.770;9.198;2023-08-06T05:39:41;3.13;;;1.80;;
287;SDS011;128;48.770;9.198;2023-08-06T05:42:07;5.57;;;1.63;;
287;SDS011;128;48.770;9.198;2023-08-06T05:44:33;8.50;;;1.60;;
287;SDS011;128;48.770;9.198;2023-08-06T05:46:59;4.60;;;1.40;;
287;SDS011;128;48.770;9.198;2023-08-06T05:49:25;6.67;;;1.70;;
287;SDS011;128;48.770;9.198;2023-08-06T05:51:51;5.63;;;1.47;;
287;SDS011;128;48.770;9.198;2023-08-06T05:54:18;1.67;;;0.90;;
287;SDS011;128;48.770;9.198;2023-08-06T05:56:44;3.90;;;1.37;;
287;SDS011;128;48.770;9.198;2023-08-06T05:59:10;5.80;;;1.10;;
287;SDS011;128;48.770;9.198;2023-08-06T06:01:36;4.27;;;0.97;;
287;SDS011;128;48.770;9.198;2023-08-06T06:04:02;4.70;;;1.50;;
287;SDS011;128;48.770;9.198;2023-08-06T06:06:28;6.83;;;1.57;;
287;SDS011;128;48.770;9.198;2023-08-06T06:08:54;2.77;;;1.20;;
287;SDS011;128;48.770;9.198;2023-08-06T06:11:19;1.53;;;0.80;;
287;SDS011;128;48.770;9.198;2023-08-06T06:13:47;3.00;;;0.90;;
287;SDS011;128;48.770;9.198;2023-08-06T06:16:13;4.60;;;0.77;;
287;SDS011;128;48.770;9.198;2023-08-06T06:18:39;1.47;;;0.80;;
287;SDS011;128;48.770;9.198;2023-08-06T06:21:05;6.80;;;1.00;;
287;SDS011;128;48.770;9.198;2023-08-06T06:23:30;1.57;;;0.80;;
287;SDS011;128;48.770;9.198;2023-08-06T06:25:56;1.20;;;0.70;;
287;SDS011;128;48.770;9.198;2023-08-06T06:28:22;1.40;;;0.80;;
287;SDS011;128;48.770;9.198;2023-08-06T06:30:48;1.63;;;0.80;;
287;SDS011;128;48.770;9.198;2023-08-06T06:33:15;5.43;;;0.80;;
287;SDS011;128;48.770;9.198;2023-08-06T06:35:40;1.97;;;1.00;;
287;SDS011;128;48.770;9.198;2023-08-06T06:38:06;1.30;;;0.70;;
287;SDS011;128;48.770;9.198;2023-08-06T06:40:32;4.37;;;1.10;;
287;SDS011;128;48.770;9.198;2023-08-06T06:42:58;1.60;;;0.90;;
287;SDS011;128;48.770;9.198;2023-08-06T06:45:24;2.67;;;1.10;;
287;SDS011;128;48.770;9.198;2023-08-06T06:47:50;4.50;;;1.13;;
287;SDS011;128;48.770;9.198;2023-08-06T06:50:16;1.40;;;0.70;;
287;SDS011;128;48.770;9.198;2023-08-06T06:52:42;4.20;;;0.80;;
287;SDS011;128;48.770;9.198;2023-08-06T06:55:08;3.30;;;1.13;;
287;SDS011;128;48.770;9.198;2023-08-06T06:57:34;3.40;;;1.30;;
287;SDS011;128;48.770;9.198;2023-08-06T07:00:00;5.70;;;1.10;;
287;SDS011;128;48.770;9.198;2023-08-06T07:02:26;5.13;;;0.90;;
287;SDS011;128;48.770;9.198;2023-08-06T07:04:52;3.23;;;1.03;;
287;SDS011;128;48.770;9.198;2023-08-06T07:07:18;5.43;;;1.10;;
287;SDS011;128;48.770;9.198;2023-08-06T07:09:44;4.10;;;1.30;;
287;SDS011;128;48.770;9.198;2023-08-06T07:12:10;1.70;;;0.90;;
287;SDS011;128;48.770;9.198;2023-08-06T07:14:36;2.70;;;1.00;;
287;SDS011;128;48.770;9.198;2023-08-06T07:17:02;1.90;;;0.90;;
287;SDS011;128;48.770;9.198;2023-08-06T07:19:28;6.10;;;0.80;;
287;SDS011;128;48.770;9.198;2023-08-06T07:21:54;2.67;;;0.97;;
287;SDS011;128;48.770;9.198;2023-08-06T07:24:21;2.10;;;1.10;;
287;SDS011;128;48.770;9.198;2023-08-06T07:26:46;1.17;;;0.80;;
287;SDS011;128;48.770;9.198;2023-08-06T07:29:13;2.83;;;0.97;;
287;SDS011;128;48.770;9.198;2023-08-06T07:31:44;1.00;;;0.70;;
287;SDS011;128;48.770;9.198;2023-08-06T07:34:10;2.37;;;0.90;;
287;SDS011;128;48.770;9.198;2023-08-06T07:36:37;2.40;;;1.00;;
287;SDS011;128;48.770;9.198;2023-08-06T07:39:03;0.80;;;0.50;;
287;SDS011;128;48.770;9.198;2023-08-06T07:41:31;1.30;;;1.10;;
287;SDS011;128;48.770;9.198;2023-08-06T07:43:57;3.43;;;1.00;;
287;SDS011;128;48.770;9.198;2023-08-06T07:46:22;1.83;;;0.70;;
287;SDS011;128;48.770;9.198;2023-08-06T07:48:48;6.20;;;1.00;;
287;SDS011;128;48.770;9.198;2023-08-06T07:51:14;3.00;;;0.80;;
287;SDS011;128;48.770;9.198;2023-08-06T07:53:40;2.03;;;0.57;;
287;SDS011;128;48.770;9.198;2023-08-06T07:56:06;3.73;;;1.50;;
287;SDS011;128;48.770;9.198;2023-08-06T07:58:32;4.10;;;0.60;;
287;SDS011;128;48.770;9.198;2023-08-06T08:00:58;2.17;;;0.73;;
287;SDS011;128;48.770;9.198;2023-08-06T08:03:24;0.90;;;0.60;;
287;SDS011;128;48.770;9.198;2023-08-06T08:05:50;1.90;;;0.73;;
287;SDS011;128;48.770;9.198;2023-08-06T08:08:22;1.50;;;0.60;;
287;SDS011;128;48.770;9.198;2023-08-06T08:10:48;4.93;;;0.70;;
287;SDS011;128;48.770;9.198;2023-08-06T08:13:14;0.80;;;0.50;;
287;SDS011;128;48.770;9.198;2023-08-06T08:15:40;0.90;;;0.50;;
287;SDS011;128;48.770;9.198;2023-08-06T08:18:06;1.20;;;0.70;;
287;SDS011;128;48.770;9.198;2023-08-06T08:20:31;1.80;;;0.60;;
287;SDS011;128;48.770;9.198;2023-08-06T08:23:00;1.20;;;0.60;;
287;SDS011;128;48.770;9.198;2023-08-06T08:25:26;0.80;;;0.50;;
287;SDS011;128;48.770;9.198;2023-08-06T08:27:52;0.83;;;0.50;;
287;SDS011;128;48.770;9.198;2023-08-06T08:30:18;1.07;;;0.70;;
287;SDS011;128;48.770;9.198;2023-08-06T08:32:44;1.80;;;0.50;;
287;SDS011;128;48.770;9.198;2023-08-06T08:35:10;1.20;;;0.60;;
287;SDS011;128;48.770;9.198;2023-08-06T08:37:37;1.30;;;0.60;;
287;SDS011;128;48.770;9.198;2023-08-06T08:40:03;1.87;;;0.50;;
287;SDS011;128;48.770;9.198;2023-08-06T08:42:30;2.23;;;0.43;;
287;SDS011;128;48.770;9.198;2023-08-06T08:44:56;0.80;;;0.40;;
287;SDS011;128;48.770;9.198;2023-08-06T08:47:22;2.87;;;0.80;;
287;SDS011;128;48.770;9.198;2023-08-06T08:49:48;1.83;;;0.50;;
287;SDS011;128;48.770;9.198;2023-08-06T08:52:15;2.13;;;0.50;;
287;SDS011;128;48.770;9.198;2023-08-06T08:54:41;0.97;;;0.60;;
287;SDS011;128;48.770;9.198;2023-08-06T08:57:08;1.30;;;0.60;;
287;SDS011;128;48.770;9.198;2023-08-06T08:59:34;0.80;;;0.40;;
287;SDS011;128;48.770;9.198;2023-08-06T09:02:00;1.27;;;0.50;;
287;SDS011;128;48.770;9.198;2023-08-06T09:04:27;1.00;;;0.60;;
287;SDS011;128;48.770;9.198;2023-08-06T09:06:53;0.80;;;0.50;;
287;SDS011;128;48.770;9.198;2023-08-06T09:09:30;0.90;;;0.40;;
287;SDS011;128;48.770;9.198;2023-08-06T09:12:00;2.40;;;0.60;;
287;SDS011;128;48.770;9.198;2023-08-06T09:14:28;1.00;;;0.50;;
287;SDS011;128;48.770;9.198;2023-08-06T09:16:54;1.00;;;0.50;;
287;SDS011;128;48.770;9.198;2023-08-06T09:19:21;1.37;;;0.60;;
287;SDS011;128;48.770;9.198;2023-08-06T09:21:48;1.10;;;0.60;;
287;SDS011;128;48.770;9.198;2023-08-06T09:24:16;1.73;;;0.60;;
287;SDS011;128;48.770;9.198;2023-08-06T09:26:43;0.80;;;0.50;;
287;SDS011;128;48.770;9.198;2023-08-06T09:29:10;0.80;;;0.50;;
287;SDS011;128;48.770;9.198;2023-08-06T09:34:10;4.37;;;1.37;;
287;SDS011;128;48.770;9.198;2023-08-06T09:36:41;0.93;;;0.50;;
287;SDS011;128;48.770;9.198;2023-08-06T09:39:13;0.90;;;0.40;;
287;SDS011;128;48.770;9.198;2023-08-06T09:41:40;0.80;;;0.40;;
287;SDS011;128;48.770;9.198;2023-08-06T09:44:11;0.80;;;0.50;;
287;SDS011;128;48.770;9.198;2023-08-06T09:46:41;5.80;;;0.60;;
287;SDS011;128;48.770;9.198;2023-08-06T09:49:06;0.93;;;0.50;;
287;SDS011;128;48.770;9.198;2023-08-06T09:51:34;2.03;;;0.57;;
287;SDS011;128;48.770;9.198;2023-08-06T09:54:00;0.80;;;0.50;;
287;SDS011;128;48.770;9.198;2023-08-06T09:56:27;1.17;;;0.50;;
287;SDS011;128;48.770;9.198;2023-08-06T09:58:54;0.90;;;0.50;;
287;SDS011;128;48.770;9.198;2023-08-06T10:01:21;0.90;;;0.50;;
287;SDS011;128;48.770;9.198;2023-08-06T10:03:47;0.90;;;0.40;;
287;SDS011;128;48.770;9.198;2023-08-06T10:06:15;2.20;;;0.70;;
287;SDS011;128;48.770;9.198;2023-08-06T10:08:41;1.67;;;0.50;;
287;SDS011;128;48.770;9.198;2023-08-06T10:11:07;1.00;;;0.50;;
287;SDS011;128;48.770;9.198;2023-08-06T10:13:33;1.13;;;0.50;;
287;SDS011;128;48.770;9.198;2023-08-06T10:16:01;1.30;;;0.83;;
287;SDS011;128;48.770;9.198;2023-08-06T10:18:28;1.00;;;0.60;;
287;SDS011;128;48.770;9.198;2023-08-06T10:20:54;0.80;;;0.40;;
287;SDS011;128;48.770;9.198;2023-08-06T10:23:20;1.00;;;0.60;;
287;SDS011;128;48.770;9.198;2023-08-06T10:25:58;1.50;;;0.50;;
287;SDS011;128;48.770;9.198;2023-08-06T10:28:31;1.90;;;0.50;;
287;SDS011;128;48.770;9.198;2023-08-06T10:31:00;3.93;;;0.50;;
287;SDS011;128;48.770;9.198;2023-08-06T10:33:26;0.90;;;0.57;;
287;SDS011;128;48.770;9.198;2023-08-06T10:36:06;1.60;;;0.60;;
287;SDS011;128;48.770;9.198;2023-08-06T10:38:34;1.00;;;0.83;;
287;SDS011;128;48.770;9.198;2023-08-06T10:41:02;3.33;;;0.60;;
287;SDS011;128;48.770;9.198;2023-08-06T10:43:29;1.20;;;0.50;;
287;SDS011;128;48.770;9.198;2023-08-06T10:45:58;1.00;;;0.50;;
287;SDS011;128;48.770;9.198;2023-08-06T10:50:57;1.63;;;0.50;;
287;SDS011;128;48.770;9.198;2023-08-06T10:53:23;1.00;;;0.50;;
287;SDS011;128;48.770;9.198;2023-08-06T10:55:49;2.20;;;0.60;;
287;SDS011;128;48.770;9.198;2023-08-06T10:58:15;1.67;;;0.67;;
287;SDS011;128;48.770;9.198;2023-08-06T11:00:41;0.90;;;0.50;;
287;SDS011;128;48.770;9.198;2023-08-06T11:03:07;0.80;;;0.50;;
287;SDS011;128;48.770;9.198;2023-08-06T11:05:34;1.10;;;0.50;;
287;SDS011;128;48.770;9.198;2023-08-06T11:08:00;5.13;;;0.60;;
287;SDS011;128;48.770;9.198;2023-08-06T11:10:26;1.43;;;0.70;;
287;SDS011;128;48.770;9.198;2023-08-06T11:12:52;1.30;;;0.60;;
287;SDS011;128;48.770;9.198;2023-08-06T11:15:19;2.10;;;0.50;;
287;SDS011;128;48.770;9.198;2023-08-06T11:17:45;0.80;;;0.50;;
287;SDS011;128;48.770;9.198;2023-08-06T11:20:11;0.90;;;0.50;;
287;SDS011;128;48.770;9.198;2023-08-06T11:22:37;0.80;;;0.50;;
287;SDS011;128;48.770;9.198;2023-08-06T11:25:04;5.13;;;0.50;;
287;SDS011;128;48.770;9.198;2023-08-06T11:27:30;1.50;;;0.80;;
287;SDS011;128;48.770;9.198;2023-08-06T11:29:56;1.33;;;0.70;;
287;SDS011;128;48.770;9.198;2023-08-06T11:32:22;3.23;;;0.70;;
287;SDS011;128;48.770;9.198;2023-08-06T11:34:49;1.20;;;0.70;;
287;SDS011;128;48.770;9.198;2023-08-06T11:37:15;1.23;;;0.77;;
287;SDS011;128;48.770;9.198;2023-08-06T11:39:44;1.10;;;0.70;;
287;SDS011;128;48.770;9.198;2023-08-06T11:42:11;2.30;;;1.03;;
287;SDS011;128;48.770;9.198;2023-08-06T11:44:37;1.13;;;0.60;;
287;SDS011;128;48.770;9.198;2023-08-06T11:47:04;1.43;;;0.70;;
287;SDS011;128;48.770;9.198;2023-08-06T11:49:37;1.53;;;0.90;;
287;SDS011;128;48.770;9.198;2023-08-06T11:52:10;1.50;;;0.80;;
287;SDS011;128;48.770;9.198;2023-08-06T11:54:37;1.20;;;0.80;;
287;SDS011;128;48.770;9.198;2023-08-06T11:57:04;2.60;;;0.80;;
287;SDS011;128;48.770;9.198;2023-08-06T11:59:30;2.37;;;0.80;;
287;SDS011;128;48.770;9.198;2023-08-06T12:01:56;3.47;;;1.37;;
287;SDS011;128;48.770;9.198;2023-08-06T12:04:22;1.03;;;0.77;;
287;SDS011;128;48.770;9.198;2023-08-06T12:06:48;3.33;;;1.20;;
287;SDS011;128;48.770;9.198;2023-08-06T12:09:14;4.60;;;1.40;;
287;SDS011;128;48.770;9.198;2023-08-06T12:11:41;1.73;;;1.00;;
287;SDS011;128;48.770;9.198;2023-08-06T12:14:06;2.77;;;1.10;;
287;SDS011;128;48.770;9.198;2023-08-06T12:16:32;1.50;;;1.00;;
287;SDS011;128;48.770;9.198;2023-08-06T12:18:58;1.40;;;0.90;;
287;SDS011;128;48.770;9.198;2023-08-06T12:21:24;5.43;;;1.67;;
287;SDS011;128;48.770;9.198;2023-08-06T12:23:50;6.33;;;2.20;;
287;SDS011;128;48.770;9.198;2023-08-06T12:26:16;3.73;;;1.23;;
287;SDS011;128;48.770;9.198;2023-08-06T12:28:42;1.53;;;0.97;;
287;SDS011;128;48.770;9.198;2023-08-06T12:31:08;13.63;;;1.47;;
287;SDS011;128;48.770;9.198;2023-08-06T12:33:34;4.57;;;1.37;;
287;SDS011;128;48.770;9.198;2023-08-06T12:36:00;2.63;;;1.80;;
287;SDS011;128;48.770;9.198;2023-08-06T12:38:26;3.30;;;1.07;;
287;SDS011;128;48.770;9.198;2023-08-06T12:40:52;1.83;;;1.33;;
287;SDS011;128;48.770;9.198;2023-08-06T12:43:18;4.13;;;1.93;;
287;SDS011;128;48.770;9.198;2023-08-06T12:45:44;2.23;;;1.00;;
287;SDS011;128;48.770;9.198;2023-08-06T12:48:09;7.93;;;1.40;;
287;SDS011;128;48.770;9.198;2023-08-06T12:50:35;3.17;;;1.13;;
287;SDS011;128;48.770;9.198;2023-08-06T12:53:01;1.40;;;1.00;;
287;SDS011;128;48.770;9.198;2023-08-06T12:55:29;1.30;;;0.93;;
287;SDS011;128;48.770;9.198;2023-08-06T12:57:55;1.30;;;0.73;;
287;SDS011;128;48.770;9.198;2023-08-06T13:00:21;1.57;;;1.07;;
287;SDS011;128;48.770;9.198;2023-08-06T13:02:47;3.10;;;0.90;;
287;SDS011;128;48.770;9.198;2023-08-06T13:05:13;1.40;;;0.60;;
287;SDS011;128;48.770;9.198;2023-08-06T13:07:39;1.77;;;0.80;;
287;SDS011;128;48.770;9.198;2023-08-06T13:10:05;1.90;;;0.80;;
287;SDS011;128;48.770;9.198;2023-08-06T13:12:31;1.77;;;1.00;;
287;SDS011;128;48.770;9.198;2023-08-06T13:14:57;1.50;;;0.73;;
287;SDS011;128;48.770;9.198;2023-08-06T13:17:24;1.93;;;0.93;;
287;SDS011;128;48.770;9.198;2023-08-06T13:19:50;1.40;;;0.70;;
287;SDS011;128;48.770;9.198;2023-08-06T13:22:16;3.20;;;2.50;;
287;SDS011;128;48.770;9.198;2023-08-06T13:24:42;3.13;;;2.17;;
287;SDS011;128;48.770;9.198;2023-08-06T13:27:08;1.73;;;1.00;;
287;SDS011;128;48.770;9.198;2023-08-06T13:29:34;2.27;;;1.30;;
287;SDS011;128;48.770;9.198;2023-08-06T13:32:00;1.10;;;0.73;;
287;SDS011;128;48.770;9.198;2023-08-06T13:34:26;3.87;;;0.80;;
287;SDS011;128;48.770;9.198;2023-08-06T13:36:52;2.27;;;1.10;;
287;SDS011;128;48.770;9.198;2023-08-06T13:39:18;1.67;;;1.10;;
287;SDS011;128;48.770;9.198;2023-08-06T13:41:44;1.50;;;0.90;;
287;SDS011;128;48.770;9.198;2023-08-06T13:44:10;5.57;;;0.80;;
287;SDS011;128;48.770;9.198;2023-08-06T13:46:39;1.13;;;0.67;;
287;SDS011;128;48.770;9.198;2023-08-06T13:49:04;2.17;;;0.70;;
287;SDS011;128;48.770;9.198;2023-08-06T13:51:30;1.20;;;0.73;;
287;SDS011;128;48.770;9.198;2023-08-06T13:53:58;2.00;;;0.80;;
287;SDS011;128;48.770;9.198;2023-08-06T13:56:24;2.17;;;0.57;;
287;SDS011;128;48.770;9.198;2023-08-06T13:58:50;1.33;;;0.83;;
287;SDS011;128;48.770;9.198;2023-08-06T14:01:17;1.57;;;0.70;;
287;SDS011;128;48.770;9.198;2023-08-06T14:03:46;1.20;;;0.60;;
287;SDS011;128;48.770;9.198;2023-08-06T14:06:12;1.13;;;0.60;;
287;SDS011;128;48.770;9.198;2023-08-06T14:08:38;1.77;;;0.70;;
287;SDS011;128;48.770;9.198;2023-08-06T14:11:04;2.13;;;0.80;;
287;SDS011;128;48.770;9.198;2023-08-06T14:13:31;1.90;;;0.70;;
287;SDS011;128;48.770;9.198;2023-08-06T14:15:57;1.10;;;0.80;;
287;SDS011;128;48.770;9.198;2023-08-06T14:18:23;1.80;;;0.97;;
287;SDS011;128;48.770;9.198;2023-08-06T14:20:49;1.60;;;0.80;;
287;SDS011;128;48.770;9.198;2023-08-06T14:23:14;2.30;;;1.20;;
287;SDS011;128;48.770;9.198;2023-08-06T14:25:40;1.50;;;0.70;;
287;SDS011;128;48.770;9.198;2023-08-06T14:28:06;3.37;;;0.80;;
287;SDS011;128;48.770;9.198;2023-08-06T14:30:33;1.33;;;0.70;;
287;SDS011;128;48.770;9.198;2023-08-06T14:32:59;2.03;;;1.20;;
287;SDS011;128;48.770;9.198;2023-08-06T14:35:28;1.30;;;0.70;;
287;SDS011;128;48.770;9.198;2023-08-06T14:37:54;2.73;;;1.57;;
287;SDS011;128;48.770;9.198;2023-08-06T14:40:20;6.10;;;0.90;;
287;SDS011;128;48.770;9.198;2023-08-06T14:42:46;1.33;;;0.90;;
287;SDS011;128;48.770;9.198;2023-08-06T14:45:12;2.13;;;1.13;;
287;SDS011;128;48.770;9.198;2023-08-06T14:47:38;2.73;;;0.90;;
287;SDS011;128;48.770;9.198;2023-08-06T14:50:04;3.30;;;0.90;;
287;SDS011;128;48.770;9.198;2023-08-06T14:52:30;1.33;;;0.90;;
287;SDS011;128;48.770;9.198;2023-08-06T14:54:56;3.23;;;1.10;;
287;SDS011;128;48.770;9.198;2023-08-06T14:57:22;1.83;;;1.03;;
287;SDS011;128;48.770;9.198;2023-08-06T14:59:52;1.60;;;0.90;;
287;SDS011;128;48.770;9.198;2023-08-06T15:02:18;3.70;;;0.80;;
287;SDS011;128;48.770;9.198;2023-08-06T15:04:44;5.03;;;0.80;;
287;SDS011;128;48.770;9.198;2023-08-06T15:07:10;1.27;;;0.90;;
287;SDS011;128;48.770;9.198;2023-08-06T15:09:36;1.80;;;0.87;;
287;SDS011;128;48.770;9.198;2023-08-06T15:12:02;1.10;;;0.70;;
287;SDS011;128;48.770;9.198;2023-08-06T15:14:28;1.90;;;0.97;;
287;SDS011;128;48.770;9.198;2023-08-06T15:16:54;1.23;;;0.90;;
287;SDS011;128;48.770;9.198;2023-08-06T15:19:22;1.47;;;0.80;;
287;SDS011;128;48.770;9.198;2023-08-06T15:21:48;2.73;;;1.30;;
287;SDS011;128;48.770;9.198;2023-08-06T15:24:14;1.17;;;0.60;;
287;SDS011;128;48.770;9.198;2023-08-06T15:26:40;1.80;;;0.80;;
287;SDS011;128;48.770;9.198;2023-08-06T15:29:06;1.63;;;0.80;;
287;SDS011;128;48.770;9.198;2023-08-06T15:31:38;2.00;;;0.70;;
287;SDS011;128;48.770;9.198;2023-08-06T15:34:04;2.40;;;0.90;;
287;SDS011;128;48.770;9.198;2023-08-06T15:36:31;1.37;;;1.03;;
287;SDS011;128;48.770;9.198;2023-08-06T15:38:57;1.10;;;0.67;;
287;SDS011;128;48.770;9.198;2023-08-06T15:41:23;2.27;;;0.90;;
287;SDS011;128;48.770;9.198;2023-08-06T15:43:49;2.57;;;1.00;;
287;SDS011;128;48.770;9.198;2023-08-06T15:46:15;13.60;;;1.07;;